createdAt,value
2023-05-19T00:49:15.068Z,1.90
2023-05-19T00:52:18.174Z,1.77
2023-05-19T00:55:20.887Z,2.00
2023-05-19T00:58:24.130Z,1.60
2023-05-19T01:01:26.926Z,1.75
2023-05-19T01:04:30.232Z,1.75
2023-05-19T01:07:33.576Z,1.73
2023-05-19T01:10:36.732Z,2.00
2023-05-19T01:13:41.937Z,1.95
2023-05-19T01:16:44.767Z,1.60
2023-05-19T01:19:48.008Z,1.90
2023-05-19T01:22:51.002Z,1.85
2023-05-19T01:25:53.457Z,1.70
2023-05-19T01:28:56.543Z,1.77
2023-05-19T01:31:59.235Z,1.67
2023-05-19T01:35:03.490Z,1.45
2023-05-19T01:38:07.352Z,1.52
2023-05-19T01:41:09.935Z,1.50
2023-05-19T01:44:12.640Z,1.65
2023-05-19T01:47:15.662Z,1.50
2023-05-19T01:50:18.754Z,1.52
2023-05-19T01:53:21.366Z,1.60
2023-05-19T01:56:24.028Z,1.60
2023-05-19T01:59:26.604Z,1.70
2023-05-19T02:02:30.894Z,1.70
2023-05-19T02:05:33.225Z,1.67
2023-05-19T02:08:35.889Z,1.85
2023-05-19T02:11:38.555Z,1.58
2023-05-19T02:14:41.315Z,1.70
2023-05-19T02:17:44.003Z,1.60
2023-05-19T02:20:46.610Z,1.77
2023-05-19T02:23:49.766Z,1.83
2023-05-19T02:26:55.521Z,1.50
2023-05-19T02:29:59.390Z,1.50
2023-05-19T02:33:02.505Z,1.40
2023-05-19T02:36:04.797Z,1.52
2023-05-19T02:39:08.166Z,1.38
2023-05-19T02:42:11.670Z,1.35
2023-05-19T02:45:14.656Z,1.23
2023-05-19T02:48:18.513Z,1.40
2023-05-19T02:51:22.393Z,1.40
2023-05-19T02:54:25.252Z,1.58
2023-05-19T02:57:27.942Z,1.50
2023-05-19T03:00:30.594Z,1.30
2023-05-19T03:03:32.994Z,1.40
2023-05-19T03:06:35.512Z,1.67
2023-05-19T03:09:37.851Z,1.45
2023-05-19T03:12:40.141Z,1.50
2023-05-19T03:15:42.737Z,1.40
2023-05-19T03:18:45.473Z,1.40
2023-05-19T03:21:48.226Z,1.30
2023-05-19T03:24:50.524Z,1.30
2023-05-19T03:27:53.020Z,1.30
2023-05-19T03:30:55.284Z,1.50
2023-05-19T03:34:02.255Z,1.50
2023-05-19T03:37:05.557Z,1.20
2023-05-19T03:40:08.997Z,1.33
2023-05-19T03:43:13.830Z,1.20
2023-05-19T03:46:22.044Z,1.58
2023-05-19T03:49:44.726Z,1.27
2023-05-19T03:53:16.537Z,1.42
2023-05-19T03:56:19.177Z,1.60
2023-05-19T03:59:21.906Z,1.55
2023-05-19T04:02:24.859Z,1.58
2023-05-19T04:05:27.955Z,1.40
2023-05-19T04:08:30.656Z,1.40
2023-05-19T04:11:33.800Z,1.35
2023-05-19T04:14:36.333Z,1.35
2023-05-19T04:17:39.974Z,1.30
2023-05-19T04:20:42.254Z,1.25
2023-05-19T04:23:45.071Z,1.23
2023-05-19T04:26:47.647Z,1.35
2023-05-19T04:29:52.562Z,1.35
2023-05-19T04:32:56.368Z,1.63
2023-05-19T04:35:59.724Z,1.40
2023-05-19T04:39:02.909Z,1.40
2023-05-19T04:42:06.367Z,1.80
2023-05-19T04:45:09.400Z,1.60
2023-05-19T04:48:17.708Z,1.73
2023-05-19T04:51:20.281Z,1.80
2023-05-19T04:54:23.186Z,1.52
2023-05-19T04:57:26.530Z,1.58
2023-05-19T05:00:29.506Z,1.90
2023-05-19T05:03:35.122Z,2.05
2023-05-19T05:06:38.436Z,1.98
2023-05-19T05:09:41.784Z,1.80
2023-05-19T05:12:44.959Z,1.60
2023-05-19T05:15:48.402Z,1.88
2023-05-19T05:18:52.342Z,1.60
2023-05-19T05:21:54.813Z,1.70
2023-05-19T05:24:58.188Z,1.67
2023-05-19T05:28:01.322Z,1.70
2023-05-19T05:31:04.474Z,3.63
2023-05-19T05:34:06.994Z,1.92
2023-05-19T05:37:09.570Z,2.15
2023-05-19T05:40:13.094Z,2.30
2023-05-19T05:43:15.353Z,2.10
2023-05-19T05:46:23.484Z,2.10
2023-05-19T05:49:25.963Z,2.22
2023-05-19T05:52:30.313Z,2.30
2023-05-19T05:55:35.460Z,2.30
2023-05-19T05:58:40.841Z,2.47
2023-05-19T06:01:43.533Z,2.50
2023-05-19T06:04:46.781Z,2.45
2023-05-19T06:07:49.474Z,2.40
2023-05-19T06:10:57.673Z,2.28
2023-05-19T06:14:02.162Z,2.30
2023-05-19T06:17:25.049Z,1.95
2023-05-19T06:20:27.525Z,1.80
2023-05-19T06:23:29.958Z,2.03
2023-05-19T06:26:32.871Z,1.75
2023-05-19T06:29:35.822Z,1.70
2023-05-19T06:32:41.669Z,1.67
2023-05-19T06:35:45.128Z,1.88
2023-05-19T06:38:47.651Z,1.75
2023-05-19T06:41:50.510Z,1.58
2023-05-19T06:45:12.764Z,1.42
2023-05-19T06:48:15.726Z,1.60
2023-05-19T06:51:18.898Z,1.80
2023-05-19T06:54:21.936Z,1.20
2023-05-19T06:57:25.463Z,1.52
2023-05-19T07:00:28.817Z,1.30
2023-05-19T07:03:32.272Z,1.42
2023-05-19T07:06:34.866Z,0.95
2023-05-19T07:09:37.992Z,1.00
2023-05-19T07:12:40.680Z,1.10
2023-05-19T07:15:44.375Z,1.30
2023-05-19T07:18:48.205Z,1.10
2023-05-19T07:21:51.048Z,0.82
2023-05-19T07:24:54.105Z,1.00
2023-05-19T07:27:57.110Z,0.80
2023-05-19T07:31:00.416Z,0.90
2023-05-19T07:34:03.182Z,1.00
2023-05-19T07:37:06.146Z,1.00
2023-05-19T07:40:08.864Z,1.00
2023-05-19T07:43:11.513Z,1.00
2023-05-19T07:46:14.808Z,0.90
2023-05-19T07:49:18.460Z,1.15
2023-05-19T07:52:21.251Z,0.90
2023-05-19T07:55:23.515Z,0.70
2023-05-19T07:58:26.794Z,0.95
2023-05-19T08:01:29.450Z,0.80
2023-05-19T08:04:32.399Z,0.75
2023-05-19T08:07:35.609Z,0.90
2023-05-19T08:10:39.353Z,0.95
2023-05-19T08:13:42.989Z,1.20
2023-05-19T08:16:46.878Z,0.90
2023-05-19T08:19:50.213Z,0.80
2023-05-19T08:22:53.827Z,0.98
2023-05-19T08:25:56.656Z,1.85
2023-05-19T08:29:00.275Z,1.20
2023-05-19T08:32:03.304Z,1.50
2023-05-19T08:35:06.015Z,1.00
2023-05-19T08:38:09.549Z,1.25
2023-05-19T08:41:11.797Z,1.13
2023-05-19T08:44:15.278Z,1.10
2023-05-19T08:47:18.877Z,1.00
2023-05-19T08:50:21.579Z,1.00
2023-05-19T08:53:33.034Z,1.00
2023-05-19T08:56:37.132Z,0.73
2023-05-19T08:59:40.455Z,0.80
2023-05-19T09:02:55.029Z,1.10
2023-05-19T09:06:04.355Z,1.00
2023-05-19T09:09:06.714Z,1.88
2023-05-19T09:12:09.852Z,1.70
2023-05-19T09:15:12.952Z,2.97
2023-05-19T09:18:16.125Z,1.48
2023-05-19T09:21:19.543Z,1.40
2023-05-19T09:24:22.528Z,2.00
2023-05-19T09:27:24.852Z,1.58
2023-05-19T09:30:27.564Z,1.40
2023-05-19T09:33:30.810Z,1.80
2023-05-19T09:36:33.974Z,1.63
2023-05-19T09:39:37.115Z,2.10
2023-05-19T09:42:39.885Z,1.80
2023-05-19T09:45:42.965Z,2.00
2023-05-19T09:48:46.045Z,1.85
2023-05-19T09:51:49.144Z,1.38
2023-05-19T09:54:52.143Z,1.95
2023-05-19T09:57:55.140Z,2.00
2023-05-19T10:00:58.980Z,1.83
2023-05-19T10:04:03.655Z,1.80
2023-05-19T10:07:07.034Z,1.80
2023-05-19T10:10:11.003Z,1.60
2023-05-19T10:13:14.140Z,1.67
2023-05-19T10:16:16.728Z,1.50
2023-05-19T10:19:19.744Z,1.67
2023-05-19T10:22:22.669Z,1.40
2023-05-19T10:25:25.547Z,1.45
2023-05-19T10:28:28.286Z,1.27
2023-05-19T10:31:32.027Z,1.58
2023-05-19T10:34:34.940Z,1.50
2023-05-19T10:37:37.720Z,1.33
2023-05-19T10:40:40.922Z,1.45
2023-05-19T10:43:45.059Z,1.60
2023-05-19T10:46:48.623Z,1.80
2023-05-19T10:49:51.799Z,1.50
2023-05-19T10:52:54.931Z,1.48
2023-05-19T10:55:57.559Z,2.20
2023-05-19T10:59:00.184Z,1.50
2023-05-19T11:02:03.195Z,2.00
2023-05-19T11:05:05.522Z,1.73
2023-05-19T11:08:08.060Z,1.40
2023-05-19T11:11:11.576Z,1.45
2023-05-19T11:14:14.382Z,1.50
2023-05-19T11:17:17.364Z,1.48
2023-05-19T11:20:20.934Z,1.10
2023-05-19T11:23:24.502Z,1.30
2023-05-19T11:26:27.292Z,1.02
2023-05-19T11:29:30.083Z,1.15
2023-05-19T11:32:33.012Z,1.17
2023-05-19T11:35:36.586Z,1.35
2023-05-19T11:38:39.399Z,0.80
2023-05-19T11:41:42.213Z,0.90
2023-05-19T11:44:44.849Z,0.95
2023-05-19T11:48:01.376Z,0.95
2023-05-19T11:51:05.374Z,0.80
2023-05-19T11:54:08.650Z,0.70
2023-05-19T11:57:11.468Z,0.70
2023-05-19T12:00:14.612Z,0.77
2023-05-19T12:03:17.838Z,0.70
2023-05-19T12:06:21.059Z,0.52
2023-05-19T12:09:24.597Z,0.80
2023-05-19T12:12:27.776Z,0.57
2023-05-19T12:15:31.621Z,0.68
2023-05-19T12:18:35.786Z,0.55
2023-05-19T12:21:39.758Z,0.47
2023-05-19T12:24:43.636Z,0.65
2023-05-19T12:27:46.650Z,0.50
2023-05-19T12:30:48.975Z,0.60
2023-05-19T12:33:52.174Z,0.60
2023-05-19T12:36:54.742Z,0.63
2023-05-19T12:39:57.425Z,0.45
2023-05-19T12:43:00.981Z,0.70
2023-05-19T12:46:03.274Z,0.60
2023-05-19T12:49:06.089Z,0.60
2023-05-19T12:52:12.757Z,0.57
2023-05-19T12:55:16.151Z,0.65
2023-05-19T12:58:19.342Z,1.10
2023-05-19T13:01:22.789Z,1.42
2023-05-19T13:04:25.864Z,2.30
2023-05-19T13:07:29.011Z,1.90
2023-05-19T13:10:32.601Z,1.75
2023-05-19T13:13:35.493Z,1.98
2023-05-19T13:16:38.760Z,1.70
2023-05-19T13:19:42.404Z,2.40
2023-05-19T13:22:45.247Z,2.20
2023-05-19T13:25:48.853Z,1.40
2023-05-19T13:28:52.210Z,1.92
2023-05-19T13:31:55.584Z,1.80
2023-05-19T13:34:58.716Z,1.73
2023-05-19T13:38:01.164Z,1.80
2023-05-19T13:41:04.800Z,1.80
2023-05-19T13:44:07.299Z,1.73
2023-05-19T13:47:11.041Z,1.70
2023-05-19T13:50:14.917Z,1.77
2023-05-19T13:53:18.644Z,1.60
2023-05-19T13:56:21.597Z,2.15
2023-05-19T13:59:24.088Z,2.47
2023-05-19T14:02:26.876Z,2.10
2023-05-19T14:05:30.175Z,2.10
2023-05-19T14:08:33.620Z,1.70
2023-05-19T14:11:36.127Z,2.00
2023-05-19T14:14:38.903Z,1.63
2023-05-19T14:17:41.685Z,1.75
2023-05-19T14:20:44.999Z,1.85
2023-05-19T14:23:48.625Z,1.77
2023-05-19T14:26:51.418Z,1.98
2023-05-19T14:29:54.240Z,1.67
2023-05-19T14:32:57.512Z,1.55
2023-05-19T14:36:00.740Z,1.42
2023-05-19T14:39:03.318Z,1.73
2023-05-19T14:42:06.930Z,1.50
2023-05-19T14:45:09.786Z,1.45
2023-05-19T14:48:12.740Z,1.60
2023-05-19T14:51:15.648Z,1.70
2023-05-19T14:54:19.228Z,1.63
2023-05-19T14:57:22.151Z,1.75
2023-05-19T15:00:25.351Z,1.85
2023-05-19T15:03:27.978Z,1.67
2023-05-19T15:06:30.942Z,1.88
2023-05-19T15:09:34.429Z,1.27
2023-05-19T15:12:37.439Z,1.60
2023-05-19T15:15:40.263Z,1.77
2023-05-19T15:18:42.938Z,1.70
2023-05-19T15:21:45.934Z,1.50
2023-05-19T15:24:48.802Z,1.70
2023-05-19T15:27:51.761Z,1.80
2023-05-19T15:30:54.645Z,1.40
2023-05-19T15:33:57.051Z,1.40
2023-05-19T15:36:59.970Z,1.40
2023-05-19T15:40:03.893Z,65.18
2023-05-19T15:43:07.477Z,55.15
2023-05-19T15:46:10.321Z,41.38
2023-05-19T15:49:13.639Z,34.17
2023-05-19T15:52:17.403Z,24.83
2023-05-19T15:55:19.895Z,21.08
2023-05-19T15:58:22.948Z,17.38
2023-05-19T16:01:26.034Z,15.23
2023-05-19T16:04:29.080Z,13.05
2023-05-19T16:07:31.582Z,10.88
2023-05-19T16:10:35.614Z,9.13
2023-05-19T16:13:39.316Z,7.35
2023-05-19T16:16:43.039Z,6.57
2023-05-19T16:19:46.309Z,6.10
2023-05-19T16:22:49.379Z,6.40
2023-05-19T16:25:52.686Z,3.20
2023-05-19T16:28:57.025Z,2.00
2023-05-19T16:32:00.723Z,2.00
2023-05-19T16:35:03.876Z,1.70
2023-05-19T16:38:06.745Z,1.50
2023-05-19T16:41:09.118Z,1.38
2023-05-19T16:44:12.168Z,1.50
2023-05-19T16:47:15.267Z,1.50
2023-05-19T16:50:18.447Z,1.65
2023-05-19T16:53:21.981Z,1.60
2023-05-19T16:56:24.806Z,1.40
2023-05-19T16:59:27.893Z,1.48
2023-05-19T17:02:31.273Z,1.30
2023-05-19T17:05:35.289Z,1.40
2023-05-19T17:08:38.539Z,1.30
2023-05-19T17:11:40.943Z,1.75
2023-05-19T17:14:44.205Z,1.15
2023-05-19T17:17:47.397Z,1.60
2023-05-19T17:20:51.649Z,1.48
2023-05-19T17:23:55.165Z,1.25
2023-05-19T17:26:58.154Z,1.60
2023-05-19T17:30:01.815Z,1.30
2023-05-19T17:33:05.002Z,1.45
2023-05-19T17:36:07.994Z,1.35
2023-05-19T17:39:10.841Z,1.42
2023-05-19T17:42:13.541Z,1.30
2023-05-19T17:45:16.867Z,1.40
2023-05-19T17:48:20.516Z,1.42
2023-05-19T17:51:24.022Z,1.20
2023-05-19T17:54:26.111Z,2.40
2023-05-19T17:57:29.134Z,1.75
2023-05-19T18:00:32.673Z,1.50
2023-05-19T18:03:36.178Z,1.45
2023-05-19T18:06:39.218Z,1.73
2023-05-19T18:09:42.115Z,1.58
2023-05-19T18:12:44.878Z,1.48
2023-05-19T18:15:48.627Z,1.30
2023-05-19T18:18:51.909Z,1.60
2023-05-19T18:21:55.594Z,1.42
2023-05-19T18:24:59.032Z,1.38
2023-05-19T18:28:01.101Z,1.42
2023-05-19T18:31:03.544Z,1.45
2023-05-19T18:34:06.744Z,1.63
2023-05-19T18:37:10.834Z,1.58
2023-05-19T18:40:14.540Z,1.55
2023-05-19T18:43:17.793Z,1.75
2023-05-19T18:46:21.095Z,1.65
2023-05-19T18:49:24.281Z,1.35
2023-05-19T18:52:26.947Z,1.20
2023-05-19T18:55:29.913Z,1.55
2023-05-19T18:58:32.745Z,1.30
2023-05-19T19:01:36.563Z,1.00
2023-05-19T19:04:40.241Z,1.13
2023-05-19T19:07:43.257Z,1.30
2023-05-19T19:10:46.639Z,1.20
2023-05-19T19:13:49.542Z,0.80
2023-05-19T19:16:52.348Z,1.15
2023-05-19T19:19:56.453Z,0.95
2023-05-19T19:22:59.967Z,0.95
2023-05-19T19:26:02.556Z,1.00
2023-05-19T19:29:05.540Z,0.80
2023-05-19T19:32:09.482Z,0.85
2023-05-19T19:35:12.576Z,1.00
2023-05-19T19:38:15.813Z,0.88
2023-05-19T19:41:19.833Z,0.82
2023-05-19T19:44:22.937Z,0.90
2023-05-19T19:47:25.861Z,0.80
2023-05-19T19:50:28.160Z,0.85
2023-05-19T19:53:31.075Z,0.90
2023-05-19T19:56:35.340Z,0.75
2023-05-19T19:59:38.872Z,0.80
2023-05-19T20:02:55.866Z,0.90
2023-05-19T20:06:04.655Z,0.70
2023-05-19T20:09:06.965Z,0.80
2023-05-19T20:12:09.464Z,0.70
2023-05-19T20:15:13.154Z,0.60
2023-05-19T20:18:16.283Z,0.88
2023-05-19T20:21:19.601Z,0.73
2023-05-19T20:24:22.235Z,0.70
2023-05-19T20:27:25.058Z,0.70
2023-05-19T20:30:28.458Z,0.80
2023-05-19T20:33:32.243Z,0.70
2023-05-19T20:36:35.871Z,0.68
2023-05-19T20:39:39.564Z,0.65
2023-05-19T20:42:42.409Z,0.70
2023-05-19T20:45:46.478Z,0.65
2023-05-19T20:48:48.997Z,0.70
2023-05-19T20:51:51.521Z,0.63
2023-05-19T20:54:54.610Z,0.88
2023-05-19T20:57:57.638Z,0.73
2023-05-19T21:01:01.357Z,0.82
2023-05-19T21:04:04.807Z,0.90
2023-05-19T21:07:07.947Z,0.73
2023-05-19T21:10:10.262Z,0.80
2023-05-19T21:13:12.745Z,0.60
2023-05-19T21:16:15.933Z,0.70
2023-05-19T21:19:19.076Z,0.60
2023-05-19T21:22:21.912Z,0.57
2023-05-19T21:25:24.264Z,0.75
2023-05-19T21:28:27.224Z,0.52
2023-05-19T21:31:30.474Z,0.70
2023-05-19T21:34:34.372Z,0.80
2023-05-19T21:37:37.184Z,0.60
2023-05-19T21:40:40.053Z,0.60
2023-05-19T21:43:44.240Z,0.70
2023-05-19T21:46:49.414Z,0.80
2023-05-19T21:49:52.353Z,0.90
2023-05-19T21:52:55.203Z,0.73
2023-05-19T21:55:58.666Z,0.80
2023-05-19T21:59:01.878Z,0.70
2023-05-19T22:02:05.155Z,0.73
2023-05-19T22:05:08.744Z,0.80
2023-05-19T22:08:11.821Z,0.65
2023-05-19T22:11:14.253Z,0.65
2023-05-19T22:14:16.882Z,0.80
2023-05-19T22:17:19.606Z,0.70
2023-05-19T22:20:22.877Z,0.68
2023-05-19T22:23:26.470Z,0.70
2023-05-19T22:26:29.187Z,0.82
2023-05-19T22:29:32.539Z,0.80
2023-05-19T22:32:36.092Z,0.90
2023-05-19T22:35:39.156Z,0.90
2023-05-19T22:38:41.917Z,1.02
2023-05-19T22:41:44.644Z,1.00
2023-05-19T22:44:47.362Z,1.08
2023-05-19T22:47:50.489Z,0.80
2023-05-19T22:50:53.622Z,0.88
2023-05-19T22:53:56.435Z,0.90
2023-05-19T22:57:00.529Z,0.90
2023-05-19T23:00:03.990Z,1.02
2023-05-19T23:03:07.573Z,0.93
2023-05-19T23:06:10.328Z,1.00
2023-05-19T23:09:14.039Z,1.20
2023-05-19T23:12:17.576Z,0.90
2023-05-19T23:15:20.580Z,0.82
2023-05-19T23:18:23.643Z,0.90
2023-05-19T23:21:26.286Z,1.10
2023-05-19T23:24:29.764Z,1.10
2023-05-19T23:27:32.809Z,1.20
2023-05-19T23:30:35.881Z,1.00
2023-05-19T23:33:38.985Z,1.10
2023-05-19T23:36:42.221Z,1.10
2023-05-19T23:39:44.837Z,1.00
2023-05-19T23:42:47.644Z,1.05
2023-05-19T23:45:51.179Z,0.80
2023-05-19T23:48:54.421Z,1.20
2023-05-19T23:51:57.718Z,1.05
2023-05-19T23:55:01.155Z,1.33
2023-05-19T23:58:04.529Z,1.00
